sensor_id;sensor_type;location;lat;lon;timestamp;pressure;altitude;pressure_sealevel;temperature;humidity
59686;BME280;45554;51.096;16.976;2022-09-30T00:03:35;99458.28;;;7.18;77.24
59686;BME280;45554;51.096;16.976;2022-09-30T00:06:28;99457.33;;;7.12;77.32
59686;BME280;45554;51.096;16.976;2022-09-30T00:09:11;99455.04;;;7.07;77.36
59686;BME280;45554;51.096;16.976;2022-09-30T00:11:54;99460.52;;;7.05;77.46
59686;BME280;45554;51.096;16.976;2022-09-30T00:14:24;99461.27;;;7.04;77.74
59686;BME280;45554;51.096;16.976;2022-09-30T00:16:54;99455.92;;;7.00;77.96
59686;BME280;45554;51.096;16.976;2022-09-30T00:19:22;99467.81;;;7.03;77.75
59686;BME280;45554;51.096;16.976;2022-09-30T00:22:02;99462.11;;;6.98;77.90
59686;BME280;45554;51.096;16.976;2022-09-30T00:24:31;99469.52;;;7.03;77.55
59686;BME280;45554;51.096;16.976;2022-09-30T00:27:04;99470.85;;;7.01;77.86
59686;BME280;45554;51.096;16.976;2022-09-30T00:29:32;99473.89;;;6.96;77.53
59686;BME280;45554;51.096;16.976;2022-09-30T00:32:06;99473.23;;;6.92;77.54
59686;BME280;45554;51.096;16.976;2022-09-30T00:34:35;99478.44;;;6.89;77.88
59686;BME280;45554;51.096;16.976;2022-09-30T00:37:03;99481.89;;;6.86;78.14
59686;BME280;45554;51.096;16.976;2022-09-30T00:39:37;99483.40;;;6.84;78.48
59686;BME280;45554;51.096;16.976;2022-09-30T00:42:10;99489.86;;;6.87;78.64
59686;BME280;45554;51.096;16.976;2022-09-30T00:50:44;99491.42;;;6.97;78.62
59686;BME280;45554;51.096;16.976;2022-09-30T00:53:28;99493.79;;;7.02;79.14
59686;BME280;45554;51.096;16.976;2022-09-30T00:56:06;99496.56;;;7.05;78.85
59686;BME280;45554;51.096;16.976;2022-09-30T01:01:59;99502.91;;;7.14;78.99
59686;BME280;45554;51.096;16.976;2022-09-30T01:04:30;99503.60;;;7.18;78.85
59686;BME280;45554;51.096;16.976;2022-09-30T01:07:05;99506.70;;;7.21;78.83
59686;BME280;45554;51.096;16.976;2022-09-30T01:09:45;99511.08;;;7.24;79.07
59686;BME280;45554;51.096;16.976;2022-09-30T01:12:19;99508.79;;;7.28;79.01
59686;BME280;45554;51.096;16.976;2022-09-30T01:14:52;99502.50;;;7.32;79.24
59686;BME280;45554;51.096;16.976;2022-09-30T01:17:30;99500.60;;;7.34;79.49
59686;BME280;45554;51.096;16.976;2022-09-30T01:23:09;99505.39;;;7.39;78.84
59686;BME280;45554;51.096;16.976;2022-09-30T01:31:48;99495.52;;;7.45;78.95
59686;BME280;45554;51.096;16.976;2022-09-30T01:40:33;99498.72;;;7.56;78.95
59686;BME280;45554;51.096;16.976;2022-09-30T01:43:16;99497.54;;;7.59;79.13
59686;BME280;45554;51.096;16.976;2022-09-30T01:45:57;99490.10;;;7.61;79.19
59686;BME280;45554;51.096;16.976;2022-09-30T01:48:50;99485.80;;;7.63;79.09
59686;BME280;45554;51.096;16.976;2022-09-30T01:51:34;99485.48;;;7.65;79.29
59686;BME280;45554;51.096;16.976;2022-09-30T01:54:26;99488.86;;;7.67;79.38
59686;BME280;45554;51.096;16.976;2022-09-30T01:57:10;99487.20;;;7.69;79.40
59686;BME280;45554;51.096;16.976;2022-09-30T01:59:53;99490.34;;;7.72;79.69
59686;BME280;45554;51.096;16.976;2022-09-30T02:02:27;99489.65;;;7.76;79.55
59686;BME280;45554;51.096;16.976;2022-09-30T02:05:11;99486.15;;;7.79;79.68
59686;BME280;45554;51.096;16.976;2022-09-30T02:07:54;99488.66;;;7.80;79.45
59686;BME280;45554;51.096;16.976;2022-09-30T02:10:48;99488.27;;;7.81;79.70
59686;BME280;45554;51.096;16.976;2022-09-30T02:13:47;99493.96;;;7.82;79.81
59686;BME280;45554;51.096;16.976;2022-09-30T02:17:11;99497.39;;;7.87;79.92
59686;BME280;45554;51.096;16.976;2022-09-30T02:19:21;99495.33;;;7.92;79.57
59686;BME280;45554;51.096;16.976;2022-09-30T02:22:04;99494.17;;;7.94;79.75
59686;BME280;45554;51.096;16.976;2022-09-30T02:24:38;99490.44;;;7.95;79.40
59686;BME280;45554;51.096;16.976;2022-09-30T02:27:20;99488.23;;;7.94;79.60
59686;BME280;45554;51.096;16.976;2022-09-30T02:30:21;99486.38;;;7.90;79.60
59686;BME280;45554;51.096;16.976;2022-09-30T02:32:58;99489.38;;;7.90;79.69
59686;BME280;45554;51.096;16.976;2022-09-30T02:35:44;99490.59;;;7.90;79.82
59686;BME280;45554;51.096;16.976;2022-09-30T02:38:40;99494.38;;;7.94;80.25
59686;BME280;45554;51.096;16.976;2022-09-30T02:41:24;99490.89;;;8.00;80.38
59686;BME280;45554;51.096;16.976;2022-09-30T02:44:03;99485.70;;;8.06;80.34
59686;BME280;45554;51.096;16.976;2022-09-30T02:49:35;99493.39;;;8.15;80.57
59686;BME280;45554;51.096;16.976;2022-09-30T02:52:57;99492.84;;;8.21;80.33
59686;BME280;45554;51.096;16.976;2022-09-30T02:58:42;99500.11;;;8.31;80.53
59686;BME280;45554;51.096;16.976;2022-09-30T03:01:14;99504.16;;;8.34;80.36
59686;BME280;45554;51.096;16.976;2022-09-30T03:03:50;99512.72;;;8.33;80.42
59686;BME280;45554;51.096;16.976;2022-09-30T03:06:23;99512.56;;;8.36;80.42
59686;BME280;45554;51.096;16.976;2022-09-30T03:08:52;99516.83;;;8.38;80.17
59686;BME280;45554;51.096;16.976;2022-09-30T03:11:28;99520.92;;;8.40;80.50
59686;BME280;45554;51.096;16.976;2022-09-30T03:14:17;99523.08;;;8.42;80.23
59686;BME280;45554;51.096;16.976;2022-09-30T03:22:45;99522.37;;;8.45;80.37
59686;BME280;45554;51.096;16.976;2022-09-30T03:28:49;99523.23;;;8.42;80.52
59686;BME280;45554;51.096;16.976;2022-09-30T03:32:01;99532.95;;;8.43;80.28
59686;BME280;45554;51.096;16.976;2022-09-30T03:34:36;99534.62;;;8.45;80.46
59686;BME280;45554;51.096;16.976;2022-09-30T03:37:24;99531.00;;;8.50;80.69
59686;BME280;45554;51.096;16.976;2022-09-30T03:43:02;99530.16;;;8.62;80.81
59686;BME280;45554;51.096;16.976;2022-09-30T03:45:44;99533.34;;;8.64;80.83
59686;BME280;45554;51.096;16.976;2022-09-30T03:48:20;99536.62;;;8.65;80.64
59686;BME280;45554;51.096;16.976;2022-09-30T03:50:51;99536.41;;;8.65;80.77
59686;BME280;45554;51.096;16.976;2022-09-30T03:53:26;99537.96;;;8.66;80.81
59686;BME280;45554;51.096;16.976;2022-09-30T03:56:01;99544.55;;;8.67;80.63
59686;BME280;45554;51.096;16.976;2022-09-30T03:58:29;99543.82;;;8.67;80.57
59686;BME280;45554;51.096;16.976;2022-09-30T04:00:58;99544.19;;;8.70;80.66
59686;BME280;45554;51.096;16.976;2022-09-30T04:03:27;99550.36;;;8.72;80.68
59686;BME280;45554;51.096;16.976;2022-09-30T04:05:55;99548.91;;;8.73;80.75
59686;BME280;45554;51.096;16.976;2022-09-30T04:08:26;99545.06;;;8.73;80.77
59686;BME280;45554;51.096;16.976;2022-09-30T04:11:00;99541.48;;;8.74;80.61
59686;BME280;45554;51.096;16.976;2022-09-30T04:13:30;99546.21;;;8.74;80.53
59686;BME280;45554;51.096;16.976;2022-09-30T04:15:58;99542.21;;;8.74;80.65
59686;BME280;45554;51.096;16.976;2022-09-30T04:18:49;99539.02;;;8.74;80.53
59686;BME280;45554;51.096;16.976;2022-09-30T04:21:20;99542.21;;;8.77;80.84
59686;BME280;45554;51.096;16.976;2022-09-30T04:23:59;99546.03;;;8.77;80.58
59686;BME280;45554;51.096;16.976;2022-09-30T04:26:28;99548.43;;;8.75;80.53
59686;BME280;45554;51.096;16.976;2022-09-30T04:28:59;99553.64;;;8.72;80.45
59686;BME280;45554;51.096;16.976;2022-09-30T04:31:27;99551.88;;;8.70;80.28
59686;BME280;45554;51.096;16.976;2022-09-30T04:34:10;99553.91;;;8.68;80.50
59686;BME280;45554;51.096;16.976;2022-09-30T04:36:39;99546.59;;;8.68;80.49
59686;BME280;45554;51.096;16.976;2022-09-30T04:39:07;99540.61;;;8.65;80.41
59686;BME280;45554;51.096;16.976;2022-09-30T04:41:36;99546.75;;;8.64;80.40
59686;BME280;45554;51.096;16.976;2022-09-30T04:44:07;99551.66;;;8.64;80.79
59686;BME280;45554;51.096;16.976;2022-09-30T04:46:36;99553.94;;;8.64;80.73
59686;BME280;45554;51.096;16.976;2022-09-30T04:49:05;99556.02;;;8.65;80.82
59686;BME280;45554;51.096;16.976;2022-09-30T04:51:36;99563.33;;;8.65;80.87
59686;BME280;45554;51.096;16.976;2022-09-30T04:54:13;99569.15;;;8.67;80.82
59686;BME280;45554;51.096;16.976;2022-09-30T04:56:43;99570.30;;;8.68;80.85
59686;BME280;45554;51.096;16.976;2022-09-30T04:59:12;99573.17;;;8.70;80.77
59686;BME280;45554;51.096;16.976;2022-09-30T05:01:40;99578.91;;;8.74;80.90
59686;BME280;45554;51.096;16.976;2022-09-30T05:04:10;99583.11;;;8.76;80.71
59686;BME280;45554;51.096;16.976;2022-09-30T05:06:39;99587.23;;;8.78;80.77
59686;BME280;45554;51.096;16.976;2022-09-30T05:09:07;99593.39;;;8.80;80.66
59686;BME280;45554;51.096;16.976;2022-09-30T05:11:36;99598.35;;;8.82;80.69
59686;BME280;45554;51.096;16.976;2022-09-30T05:14:08;99602.13;;;8.83;80.80
59686;BME280;45554;51.096;16.976;2022-09-30T05:16:39;99605.33;;;8.82;80.57
59686;BME280;45554;51.096;16.976;2022-09-30T05:19:07;99617.86;;;8.83;80.80
59686;BME280;45554;51.096;16.976;2022-09-30T05:21:36;99624.23;;;8.84;80.62
59686;BME280;45554;51.096;16.976;2022-09-30T05:24:05;99625.48;;;8.84;80.41
59686;BME280;45554;51.096;16.976;2022-09-30T05:26:34;99624.51;;;8.86;80.70
59686;BME280;45554;51.096;16.976;2022-09-30T05:29:05;99626.92;;;8.86;80.60
59686;BME280;45554;51.096;16.976;2022-09-30T05:31:40;99628.09;;;8.90;80.46
59686;BME280;45554;51.096;16.976;2022-09-30T05:34:11;99632.99;;;8.93;80.52
59686;BME280;45554;51.096;16.976;2022-09-30T05:36:46;99627.09;;;8.96;80.46
59686;BME280;45554;51.096;16.976;2022-09-30T05:39:15;99624.30;;;8.99;80.52
59686;BME280;45554;51.096;16.976;2022-09-30T05:41:44;99622.58;;;9.04;80.75
59686;BME280;45554;51.096;16.976;2022-09-30T05:44:15;99625.61;;;9.12;80.76
59686;BME280;45554;51.096;16.976;2022-09-30T05:46:44;99631.21;;;9.17;80.75
59686;BME280;45554;51.096;16.976;2022-09-30T05:49:14;99631.29;;;9.22;80.68
59686;BME280;45554;51.096;16.976;2022-09-30T05:51:43;99630.33;;;9.26;80.51
59686;BME280;45554;51.096;16.976;2022-09-30T05:54:11;99633.19;;;9.31;80.26
59686;BME280;45554;51.096;16.976;2022-09-30T05:56:46;99637.54;;;9.35;80.21
59686;BME280;45554;51.096;16.976;2022-09-30T05:59:15;99641.90;;;9.38;79.96
59686;BME280;45554;51.096;16.976;2022-09-30T06:01:45;99642.92;;;9.41;79.85
59686;BME280;45554;51.096;16.976;2022-09-30T06:04:13;99638.86;;;9.44;79.88
59686;BME280;45554;51.096;16.976;2022-09-30T06:06:41;99634.90;;;9.47;79.76
59686;BME280;45554;51.096;16.976;2022-09-30T06:09:10;99641.11;;;9.51;79.88
59686;BME280;45554;51.096;16.976;2022-09-30T06:11:38;99648.39;;;9.58;79.98
59686;BME280;45554;51.096;16.976;2022-09-30T06:14:09;99656.71;;;9.62;79.72
59686;BME280;45554;51.096;16.976;2022-09-30T06:16:38;99668.40;;;9.63;79.61
59686;BME280;45554;51.096;16.976;2022-09-30T06:19:07;99674.39;;;9.65;79.39
59686;BME280;45554;51.096;16.976;2022-09-30T06:21:35;99672.44;;;9.65;79.42
59686;BME280;45554;51.096;16.976;2022-09-30T06:24:06;99675.97;;;9.68;79.46
59686;BME280;45554;51.096;16.976;2022-09-30T06:26:40;99675.84;;;9.73;79.73
59686;BME280;45554;51.096;16.976;2022-09-30T06:29:11;99676.95;;;9.77;79.56
59686;BME280;45554;51.096;16.976;2022-09-30T06:31:42;99673.41;;;9.78;79.31
59686;BME280;45554;51.096;16.976;2022-09-30T06:34:10;99675.88;;;9.81;79.58
59686;BME280;45554;51.096;16.976;2022-09-30T06:36:40;99671.27;;;9.84;79.48
59686;BME280;45554;51.096;16.976;2022-09-30T06:39:09;99676.09;;;9.86;79.58
59686;BME280;45554;51.096;16.976;2022-09-30T06:41:40;99683.65;;;9.91;79.85
59686;BME280;45554;51.096;16.976;2022-09-30T06:44:24;99689.71;;;9.98;79.57
59686;BME280;45554;51.096;16.976;2022-09-30T06:46:53;99693.13;;;10.02;79.40
59686;BME280;45554;51.096;16.976;2022-09-30T06:49:21;99693.60;;;10.06;79.21
59686;BME280;45554;51.096;16.976;2022-09-30T06:51:52;99693.94;;;10.12;79.20
59686;BME280;45554;51.096;16.976;2022-09-30T06:54:21;99692.73;;;10.17;79.17
59686;BME280;45554;51.096;16.976;2022-09-30T06:56:53;99695.11;;;10.24;79.16
59686;BME280;45554;51.096;16.976;2022-09-30T06:59:25;99692.27;;;10.30;79.05
59686;BME280;45554;51.096;16.976;2022-09-30T07:01:53;99695.45;;;10.35;78.82
59686;BME280;45554;51.096;16.976;2022-09-30T07:04:23;99696.73;;;10.40;78.81
59686;BME280;45554;51.096;16.976;2022-09-30T07:06:52;99702.32;;;10.46;78.72
59686;BME280;45554;51.096;16.976;2022-09-30T07:09:24;99701.22;;;10.52;78.43
59686;BME280;45554;51.096;16.976;2022-09-30T07:11:53;99701.33;;;10.56;78.25
59686;BME280;45554;51.096;16.976;2022-09-30T07:14:23;99702.59;;;10.61;78.07
59686;BME280;45554;51.096;16.976;2022-09-30T07:16:52;99705.35;;;10.65;77.88
59686;BME280;45554;51.096;16.976;2022-09-30T07:19:21;99708.69;;;10.70;77.97
59686;BME280;45554;51.096;16.976;2022-09-30T07:21:50;99710.88;;;10.74;77.68
59686;BME280;45554;51.096;16.976;2022-09-30T07:24:18;99715.54;;;10.78;77.57
59686;BME280;45554;51.096;16.976;2022-09-30T07:26:46;99714.73;;;10.82;77.57
59686;BME280;45554;51.096;16.976;2022-09-30T07:29:17;99723.86;;;10.88;77.30
59686;BME280;45554;51.096;16.976;2022-09-30T07:31:46;99729.45;;;10.91;77.12
59686;BME280;45554;51.096;16.976;2022-09-30T07:34:14;99727.52;;;10.93;77.09
59686;BME280;45554;51.096;16.976;2022-09-30T07:36:42;99732.61;;;10.99;77.19
59686;BME280;45554;51.096;16.976;2022-09-30T07:39:11;99735.73;;;11.02;76.76
59686;BME280;45554;51.096;16.976;2022-09-30T07:41:39;99738.73;;;11.07;76.95
59686;BME280;45554;51.096;16.976;2022-09-30T07:44:15;99746.48;;;11.15;76.89
59686;BME280;45554;51.096;16.976;2022-09-30T07:46:44;99755.52;;;11.24;76.79
59686;BME280;45554;51.096;16.976;2022-09-30T07:49:14;99753.33;;;11.31;76.79
59686;BME280;45554;51.096;16.976;2022-09-30T07:51:47;99749.73;;;11.37;76.63
59686;BME280;45554;51.096;16.976;2022-09-30T07:54:19;99752.27;;;11.42;76.50
59686;BME280;45554;51.096;16.976;2022-09-30T07:56:51;99751.25;;;11.46;76.12
59686;BME280;45554;51.096;16.976;2022-09-30T07:59:40;99753.17;;;11.51;75.96
59686;BME280;45554;51.096;16.976;2022-09-30T08:02:17;99755.32;;;11.59;76.01
59686;BME280;45554;51.096;16.976;2022-09-30T08:04:45;99756.40;;;11.68;76.05
59686;BME280;45554;51.096;16.976;2022-09-30T08:07:16;99754.05;;;11.75;75.77
59686;BME280;45554;51.096;16.976;2022-09-30T08:09:44;99756.48;;;11.78;75.71
59686;BME280;45554;51.096;16.976;2022-09-30T08:12:13;99758.30;;;11.87;75.70
59686;BME280;45554;51.096;16.976;2022-09-30T08:14:41;99753.37;;;11.95;75.63
59686;BME280;45554;51.096;16.976;2022-09-30T08:17:12;99749.29;;;12.06;75.37
59686;BME280;45554;51.096;16.976;2022-09-30T08:19:40;99749.19;;;12.18;74.86
59686;BME280;45554;51.096;16.976;2022-09-30T08:22:12;99753.85;;;12.27;74.64
59686;BME280;45554;51.096;16.976;2022-09-30T08:24:41;99758.13;;;12.34;74.20
59686;BME280;45554;51.096;16.976;2022-09-30T08:27:10;99757.55;;;12.39;74.29
59686;BME280;45554;51.096;16.976;2022-09-30T08:29:39;99755.54;;;12.45;74.11
59686;BME280;45554;51.096;16.976;2022-09-30T08:32:30;99762.02;;;12.53;73.74
59686;BME280;45554;51.096;16.976;2022-09-30T08:34:59;99764.33;;;12.63;73.79
59686;BME280;45554;51.096;16.976;2022-09-30T08:37:27;99767.27;;;12.68;73.06
59686;BME280;45554;51.096;16.976;2022-09-30T08:39:59;99772.02;;;12.68;72.71
59686;BME280;45554;51.096;16.976;2022-09-30T08:42:45;99775.24;;;12.68;72.68
59686;BME280;45554;51.096;16.976;2022-09-30T08:51:36;99774.80;;;12.84;72.14
59686;BME280;45554;51.096;16.976;2022-09-30T08:54:14;99776.69;;;12.89;71.91
59686;BME280;45554;51.096;16.976;2022-09-30T08:56:44;99780.39;;;13.01;71.85
59686;BME280;45554;51.096;16.976;2022-09-30T08:59:35;99787.09;;;13.13;71.72
59686;BME280;45554;51.096;16.976;2022-09-30T09:02:17;99791.08;;;13.26;71.10
59686;BME280;45554;51.096;16.976;2022-09-30T09:04:50;99791.20;;;13.36;70.99
59686;BME280;45554;51.096;16.976;2022-09-30T09:07:59;99792.84;;;13.45;70.62
59686;BME280;45554;51.096;16.976;2022-09-30T09:10:44;99794.04;;;13.50;70.21
59686;BME280;45554;51.096;16.976;2022-09-30T09:19:15;99797.38;;;13.95;69.90
59686;BME280;45554;51.096;16.976;2022-09-30T09:24:27;99792.59;;;14.21;68.54
59686;BME280;45554;51.096;16.976;2022-09-30T09:26:57;99792.71;;;14.37;68.28
59686;BME280;45554;51.096;16.976;2022-09-30T09:30:00;99793.88;;;14.49;67.87
59686;BME280;45554;51.096;16.976;2022-09-30T09:32:28;99796.15;;;14.59;67.30
59686;BME280;45554;51.096;16.976;2022-09-30T09:35:00;99795.21;;;14.68;67.13
59686;BME280;45554;51.096;16.976;2022-09-30T09:37:40;99794.95;;;14.72;66.87
59686;BME280;45554;51.096;16.976;2022-09-30T09:43:34;99797.86;;;14.88;66.64
59686;BME280;45554;51.096;16.976;2022-09-30T09:48:45;99797.98;;;15.15;66.01
59686;BME280;45554;51.096;16.976;2022-09-30T09:51:49;99800.40;;;15.27;65.82
59686;BME280;45554;51.096;16.976;2022-09-30T09:54:10;99805.52;;;15.40;65.52
59686;BME280;45554;51.096;16.976;2022-09-30T09:56:39;99801.71;;;15.45;65.28
59686;BME280;45554;51.096;16.976;2022-09-30T09:59:15;99805.33;;;15.51;65.05
59686;BME280;45554;51.096;16.976;2022-09-30T10:01:51;99804.72;;;15.52;64.71
59686;BME280;45554;51.096;16.976;2022-09-30T10:04:25;99805.09;;;15.54;64.69
59686;BME280;45554;51.096;16.976;2022-09-30T10:09:38;99812.95;;;15.57;64.42
59686;BME280;45554;51.096;16.976;2022-09-30T10:14:39;99814.67;;;15.53;63.96
59686;BME280;45554;51.096;16.976;2022-09-30T10:17:19;99812.14;;;15.54;63.97
59686;BME280;45554;51.096;16.976;2022-09-30T10:19:53;99813.94;;;15.56;63.97
59686;BME280;45554;51.096;16.976;2022-09-30T10:22:28;99813.41;;;15.60;63.90
59686;BME280;45554;51.096;16.976;2022-09-30T10:25:17;99809.92;;;15.65;63.91
59686;BME280;45554;51.096;16.976;2022-09-30T10:27:58;99809.78;;;15.76;63.82
59686;BME280;45554;51.096;16.976;2022-09-30T10:30:45;99805.30;;;15.89;63.74
59686;BME280;45554;51.096;16.976;2022-09-30T10:33:23;99810.67;;;16.04;63.56
59686;BME280;45554;51.096;16.976;2022-09-30T10:35:55;99814.67;;;16.10;62.84
59686;BME280;45554;51.096;16.976;2022-09-30T10:38:27;99813.77;;;16.15;62.70
59686;BME280;45554;51.096;16.976;2022-09-30T10:40:57;99812.63;;;16.30;62.91
59686;BME280;45554;51.096;16.976;2022-09-30T10:43:41;99813.56;;;16.44;62.42
59686;BME280;45554;51.096;16.976;2022-09-30T10:46:24;99815.89;;;16.58;61.91
59686;BME280;45554;51.096;16.976;2022-09-30T10:48:55;99813.92;;;16.75;62.09
59686;BME280;45554;51.096;16.976;2022-09-30T10:51:44;99813.48;;;16.92;61.76
59686;BME280;45554;51.096;16.976;2022-09-30T10:57:00;99809.73;;;17.20;60.90
59686;BME280;45554;51.096;16.976;2022-09-30T10:59:36;99804.92;;;17.26;60.37
59686;BME280;45554;51.096;16.976;2022-09-30T11:05:30;99802.01;;;17.41;60.29
59686;BME280;45554;51.096;16.976;2022-09-30T11:13:20;99794.43;;;17.85;58.85
59686;BME280;45554;51.096;16.976;2022-09-30T11:16:00;99793.88;;;17.93;58.40
59686;BME280;45554;51.096;16.976;2022-09-30T11:18:50;99797.88;;;17.96;58.02
59686;BME280;45554;51.096;16.976;2022-09-30T11:27:09;99796.71;;;18.18;57.63
59686;BME280;45554;51.096;16.976;2022-09-30T11:43:38;99799.53;;;18.74;54.70
59686;BME280;45554;51.096;16.976;2022-09-30T11:46:26;99804.61;;;18.80;54.70
59686;BME280;45554;51.096;16.976;2022-09-30T11:49:06;99803.88;;;19.01;54.81
59686;BME280;45554;51.096;16.976;2022-09-30T11:51:57;99807.80;;;19.10;53.99
59686;BME280;45554;51.096;16.976;2022-09-30T11:54:42;99807.90;;;19.16;53.78
59686;BME280;45554;51.096;16.976;2022-09-30T12:00:03;99801.67;;;19.45;53.24
59686;BME280;45554;51.096;16.976;2022-09-30T12:02:39;99792.55;;;19.57;52.84
59686;BME280;45554;51.096;16.976;2022-09-30T12:07:48;99791.58;;;19.64;51.72
59686;BME280;45554;51.096;16.976;2022-09-30T12:10:22;99799.20;;;19.77;51.22
59686;BME280;45554;51.096;16.976;2022-09-30T12:12:56;99802.29;;;19.69;50.56
59686;BME280;45554;51.096;16.976;2022-09-30T12:15:26;99807.77;;;19.54;50.70
59686;BME280;45554;51.096;16.976;2022-09-30T12:17:59;99812.33;;;19.47;50.28
59686;BME280;45554;51.096;16.976;2022-09-30T12:20:40;99817.31;;;19.43;49.42
59686;BME280;45554;51.096;16.976;2022-09-30T12:23:43;99819.21;;;19.31;49.35
59686;BME280;45554;51.096;16.976;2022-09-30T12:26:15;99816.97;;;19.18;48.82
59686;BME280;45554;51.096;16.976;2022-09-30T12:37:25;99825.30;;;19.27;48.47
59686;BME280;45554;51.096;16.976;2022-09-30T12:40:10;99824.98;;;19.40;48.17
59686;BME280;45554;51.096;16.976;2022-09-30T12:48:59;99820.55;;;19.73;46.94
59686;BME280;45554;51.096;16.976;2022-09-30T12:51:34;99820.40;;;19.82;46.97
59686;BME280;45554;51.096;16.976;2022-09-30T12:54:38;99820.00;;;19.95;47.03
59686;BME280;45554;51.096;16.976;2022-09-30T12:57:08;99814.53;;;20.05;46.49
59686;BME280;45554;51.096;16.976;2022-09-30T12:59:47;99812.33;;;20.16;46.56
59686;BME280;45554;51.096;16.976;2022-09-30T13:02:32;99812.05;;;20.31;46.48
59686;BME280;45554;51.096;16.976;2022-09-30T13:13:30;99814.47;;;20.66;45.69
59686;BME280;45554;51.096;16.976;2022-09-30T13:16:02;99811.89;;;20.67;45.90
59686;BME280;45554;51.096;16.976;2022-09-30T13:23:41;99808.02;;;20.67;45.07
59686;BME280;45554;51.096;16.976;2022-09-30T13:34:24;99805.20;;;21.06;45.40
59686;BME280;45554;51.096;16.976;2022-09-30T13:37:01;99796.25;;;21.46;45.16
59686;BME280;45554;51.096;16.976;2022-09-30T13:39:44;99793.86;;;21.71;44.48
59686;BME280;45554;51.096;16.976;2022-09-30T13:45:06;99791.64;;;21.94;43.65
59686;BME280;45554;51.096;16.976;2022-09-30T13:50:40;99804.80;;;21.76;43.45
59686;BME280;45554;51.096;16.976;2022-09-30T13:53:32;99810.92;;;21.60;43.19
59686;BME280;45554;51.096;16.976;2022-09-30T13:56:03;99813.09;;;21.47;43.36
59686;BME280;45554;51.096;16.976;2022-09-30T14:07:33;99807.34;;;21.10;43.83
59686;BME280;45554;51.096;16.976;2022-09-30T14:24:02;99799.73;;;21.45;42.78
59686;BME280;45554;51.096;16.976;2022-09-30T14:26:47;99796.48;;;21.69;42.73
59686;BME280;45554;51.096;16.976;2022-09-30T14:29:28;99802.35;;;22.06;42.85
59686;BME280;45554;51.096;16.976;2022-09-30T14:32:09;99807.17;;;22.56;42.50
59686;BME280;45554;51.096;16.976;2022-09-30T14:34:40;99815.58;;;22.97;41.57
59686;BME280;45554;51.096;16.976;2022-09-30T14:37:32;99814.05;;;23.47;41.63
59686;BME280;45554;51.096;16.976;2022-09-30T14:40:10;99813.00;;;23.96;41.23
59686;BME280;45554;51.096;16.976;2022-09-30T14:42:43;99811.07;;;24.43;40.06
59686;BME280;45554;51.096;16.976;2022-09-30T14:45:18;99811.05;;;24.70;39.34
59686;BME280;45554;51.096;16.976;2022-09-30T14:47:50;99809.76;;;24.88;38.97
59686;BME280;45554;51.096;16.976;2022-09-30T14:50:22;99810.40;;;25.12;38.28
59686;BME280;45554;51.096;16.976;2022-09-30T14:52:52;99806.30;;;25.23;37.76
59686;BME280;45554;51.096;16.976;2022-09-30T14:55:33;99806.60;;;25.41;37.92
59686;BME280;45554;51.096;16.976;2022-09-30T14:58:23;99808.86;;;25.49;37.15
59686;BME280;45554;51.096;16.976;2022-09-30T15:03:35;99823.89;;;25.56;36.56
59686;BME280;45554;51.096;16.976;2022-09-30T15:06:05;99821.15;;;25.54;36.29
59686;BME280;45554;51.096;16.976;2022-09-30T15:08:42;99825.88;;;25.48;36.26
59686;BME280;45554;51.096;16.976;2022-09-30T15:11:20;99826.44;;;25.29;35.91
59686;BME280;45554;51.096;16.976;2022-09-30T15:13:56;99816.86;;;25.03;35.98
59686;BME280;45554;51.096;16.976;2022-09-30T15:16:28;99818.05;;;24.74;36.03
59686;BME280;45554;51.096;16.976;2022-09-30T15:18:58;99811.20;;;24.51;35.89
59686;BME280;45554;51.096;16.976;2022-09-30T15:21:29;99812.20;;;24.36;36.39
59686;BME280;45554;51.096;16.976;2022-09-30T15:23:59;99817.31;;;24.27;36.31
59686;BME280;45554;51.096;16.976;2022-09-30T15:26:30;99819.85;;;24.28;36.54
59686;BME280;45554;51.096;16.976;2022-09-30T15:29:02;99821.86;;;24.24;36.28
59686;BME280;45554;51.096;16.976;2022-09-30T15:31:31;99826.92;;;24.20;36.22
59686;BME280;45554;51.096;16.976;2022-09-30T15:34:01;99834.64;;;24.00;35.99
59686;BME280;45554;51.096;16.976;2022-09-30T15:36:30;99840.51;;;23.68;36.18
59686;BME280;45554;51.096;16.976;2022-09-30T15:38:59;99848.00;;;23.32;36.00
59686;BME280;45554;51.096;16.976;2022-09-30T15:41:28;99848.53;;;22.89;36.32
59686;BME280;45554;51.096;16.976;2022-09-30T15:43:56;99847.75;;;22.44;36.70
59686;BME280;45554;51.096;16.976;2022-09-30T15:46:29;99850.15;;;21.98;37.35
59686;BME280;45554;51.096;16.976;2022-09-30T15:49:00;99851.37;;;21.59;37.90
59686;BME280;45554;51.096;16.976;2022-09-30T15:51:34;99847.36;;;21.18;38.46
59686;BME280;45554;51.096;16.976;2022-09-30T15:54:28;99847.30;;;20.88;39.00
59686;BME280;45554;51.096;16.976;2022-09-30T15:57:01;99845.01;;;20.57;39.52
59686;BME280;45554;51.096;16.976;2022-09-30T15:59:59;99846.76;;;20.33;40.27
59686;BME280;45554;51.096;16.976;2022-09-30T16:02:32;99846.09;;;20.02;40.66
59686;BME280;45554;51.096;16.976;2022-09-30T16:05:02;99843.92;;;19.76;41.04
59686;BME280;45554;51.096;16.976;2022-09-30T16:07:33;99843.75;;;19.49;41.71
59686;BME280;45554;51.096;16.976;2022-09-30T16:10:01;99847.80;;;19.21;42.20
59686;BME280;45554;51.096;16.976;2022-09-30T16:12:34;99851.94;;;18.89;42.82
59686;BME280;45554;51.096;16.976;2022-09-30T16:15:10;99851.33;;;18.56;43.30
59686;BME280;45554;51.096;16.976;2022-09-30T16:17:48;99853.90;;;18.23;44.03
59686;BME280;45554;51.096;16.976;2022-09-30T16:20:36;99864.92;;;17.91;44.69
59686;BME280;45554;51.096;16.976;2022-09-30T16:23:28;99867.92;;;17.66;45.28
59686;BME280;45554;51.096;16.976;2022-09-30T16:26:18;99881.42;;;17.36;45.95
59686;BME280;45554;51.096;16.976;2022-09-30T16:29:07;99886.36;;;17.04;46.67
59686;BME280;45554;51.096;16.976;2022-09-30T16:31:42;99891.81;;;16.82;47.21
59686;BME280;45554;51.096;16.976;2022-09-30T16:34:18;99897.80;;;16.58;47.62